Time;durP1;ratioP1;P1;durP2;ratioP2;P2;SDS_P1;SDS_P2;PMS_P1;PMS_P2;Temp;Humidity;BMP_temperature;BMP_pressure;BME280_temperature;BME280_humidity;BME280_pressure;Samples;Min_cycle;Max_cycle;Signal;HPM_P1;HPM_P2
2023/01/28 00:00:51;;;;;;;43.60;14.38;;;;;;;-0.22;100.00;98681.28;4517814;31;20103;-71
2023/01/28 00:03:19;;;;;;;34.75;14.32;;;;;;;-0.17;100.00;98682.81;4517499;31;20536;-72
2023/01/28 00:05:46;;;;;;;33.50;12.93;;;;;;;-0.21;100.00;98680.38;4517584;31;20114;-72
2023/01/28 00:08:13;;;;;;;36.38;13.93;;;;;;;-0.22;100.00;98686.44;4517760;31;20088;-72
2023/01/28 00:10:44;;;;;;;36.78;13.07;;;;;;;-0.31;100.00;98697.16;4528034;31;20121;-72
2023/01/28 00:13:14;;;;;;;35.17;13.95;;;;;;;-0.25;100.00;98707.16;4533431;31;20164;-72
2023/01/28 00:15:42;;;;;;;37.53;15.00;;;;;;;-0.26;100.00;98700.38;4533447;31;20083;-72
2023/01/28 00:18:09;;;;;;;40.72;14.00;;;;;;;-0.24;100.00;98695.97;4532299;31;20117;-72
2023/01/28 00:20:36;;;;;;;37.22;14.20;;;;;;;-0.26;100.00;98702.94;4533456;31;20167;-72
2023/01/28 00:23:04;;;;;;;41.40;15.63;;;;;;;-0.21;100.00;98697.59;4520468;31;20163;-72
2023/01/28 00:25:31;;;;;;;33.65;14.55;;;;;;;-0.24;100.00;98701.12;4517678;31;20394;-72
2023/01/28 00:27:59;;;;;;;39.72;14.27;;;;;;;-0.27;100.00;98703.84;4517353;31;20496;-71
2023/01/28 00:30:26;;;;;;;36.08;15.25;;;;;;;-0.16;100.00;98699.94;4517211;31;20111;-72
2023/01/28 00:32:55;;;;;;;38.67;13.50;;;;;;;-0.19;100.00;98701.72;4517434;31;20095;-71
2023/01/28 00:35:22;;;;;;;42.42;15.18;;;;;;;-0.25;100.00;98701.19;4517370;31;20102;-72
2023/01/28 00:37:49;;;;;;;45.47;15.45;;;;;;;-0.34;100.00;98709.34;4517506;31;20100;-72
2023/01/28 00:40:17;;;;;;;37.35;14.48;;;;;;;-0.34;100.00;98711.91;4517174;31;20478;-72
2023/01/28 00:42:44;;;;;;;36.78;14.87;;;;;;;-0.33;100.00;98709.28;4516058;31;20104;-72
2023/01/28 00:45:13;;;;;;;34.15;13.15;;;;;;;-0.34;100.00;98710.16;4516994;31;20096;-71
2023/01/28 00:47:40;;;;;;;45.30;15.85;;;;;;;-0.26;100.00;98713.25;4517296;31;20460;-72
2023/01/28 00:50:08;;;;;;;39.70;14.15;;;;;;;-0.22;100.00;98709.59;4517040;31;20668;-72
2023/01/28 00:52:36;;;;;;;36.45;13.95;;;;;;;-0.20;100.00;98718.09;4517279;31;20087;-72
2023/01/28 00:55:04;;;;;;;33.97;13.95;;;;;;;-0.23;100.00;98723.41;4517055;31;20076;-72
2023/01/28 00:57:31;;;;;;;36.53;14.02;;;;;;;-0.18;100.00;98712.87;4517268;31;20490;-72
2023/01/28 00:59:59;;;;;;;32.00;13.62;;;;;;;-0.21;100.00;98718.19;4517273;31;20088;-72
2023/01/28 01:02:27;;;;;;;28.45;10.90;;;;;;;-0.24;100.00;98724.28;4517179;31;20096;-72
2023/01/28 01:04:57;;;;;;;41.80;14.45;;;;;;;-0.14;100.00;98724.69;4517085;31;20243;-72
2023/01/28 01:07:31;;;;;;;39.47;14.07;;;;;;;-0.12;100.00;98729.78;4517517;31;20123;-72
2023/01/28 01:09:59;;;;;;;36.03;13.82;;;;;;;-0.12;100.00;98719.47;4522620;31;20139;-72
2023/01/28 01:12:28;;;;;;;29.75;12.05;;;;;;;-0.20;100.00;98730.97;4533121;31;20176;-72
2023/01/28 01:14:56;;;;;;;28.73;13.82;;;;;;;-0.18;100.00;98730.91;4532843;31;20091;-72
2023/01/28 01:17:23;;;;;;;39.55;14.55;;;;;;;-0.17;100.00;98729.16;4533056;31;20178;-71
2023/01/28 01:19:51;;;;;;;35.15;12.95;;;;;;;-0.03;100.00;98724.19;4532999;31;20223;-72
2023/01/28 01:22:18;;;;;;;30.83;12.20;;;;;;;0.10;100.00;98724.47;4525528;31;20155;-72
2023/01/28 01:24:47;;;;;;;35.38;13.82;;;;;;;0.03;100.00;98721.34;4515681;31;20148;-72
2023/01/28 01:27:14;;;;;;;32.17;12.88;;;;;;;-0.06;100.00;98730.34;4517020;31;20122;-72
2023/01/28 01:29:41;;;;;;;35.63;13.57;;;;;;;-0.01;100.00;98725.78;4516280;31;20118;-72
2023/01/28 01:32:08;;;;;;;41.13;16.58;;;;;;;-0.06;100.00;98732.06;4517045;31;20091;-72
2023/01/28 01:34:36;;;;;;;40.35;16.33;;;;;;;-0.06;100.00;98726.91;4517152;31;20587;-72
2023/01/28 01:37:05;;;;;;;39.67;14.98;;;;;;;-0.04;100.00;98725.94;4517030;31;20631;-72
2023/01/28 01:39:32;;;;;;;51.67;17.15;;;;;;;-0.04;100.00;98719.97;4517066;31;20578;-72
2023/01/28 01:42:00;;;;;;;34.65;14.75;;;;;;;-0.04;100.00;98725.12;4516818;31;20531;-72
2023/01/28 01:45:13;;;;;;;46.58;16.35;;;;;;;0.04;100.00;98728.16;4516618;31;20582;-72
2023/01/28 01:47:44;;;;;;;43.35;16.08;;;;;;;-0.01;100.00;98722.41;4438866;32;20146;-72
2023/01/28 01:50:35;;;;;;;44.53;15.38;;;;;;;-0.05;100.00;98729.41;4451226;32;20166;-72
2023/01/28 01:53:08;;;;;;;32.60;12.90;;;;;;;-0.07;100.00;98727.84;4451639;32;20136;-72
2023/01/28 01:55:37;;;;;;;41.60;16.00;;;;;;;-0.04;100.00;98731.09;4451355;32;20145;-72
2023/01/28 01:58:07;;;;;;;44.03;15.45;;;;;;;-0.15;100.00;98732.47;4451293;32;20462;-72
2023/01/28 02:00:37;;;;;;;36.78;13.95;;;;;;;-0.17;100.00;98742.84;4438412;32;20537;-71
2023/01/28 02:03:05;;;;;;;43.58;15.43;;;;;;;-0.14;100.00;98731.59;4438519;32;20785;-72
2023/01/28 02:05:32;;;;;;;38.55;16.42;;;;;;;-0.11;100.00;98739.16;4438229;32;20096;-72
2023/01/28 02:10:55;;;;;;;45.05;15.73;;;;;;;-0.11;100.00;98740.00;4450823;32;20425;-72
2023/01/28 02:13:26;;;;;;;36.72;14.60;;;;;;;-0.05;100.00;98738.88;4438485;32;20569;-72
2023/01/28 02:15:54;;;;;;;42.00;15.15;;;;;;;-0.02;100.00;98738.75;4438100;32;20462;-72
2023/01/28 02:18:22;;;;;;;38.67;15.57;;;;;;;0.05;100.00;98734.97;4477715;31;20071;-72
2023/01/28 02:21:12;;;;;;;38.17;14.50;;;;;;;0.04;100.00;98748.75;4532696;31;20098;-72
2023/01/28 02:24:01;;;;;;;46.65;16.80;;;;;;;-0.03;100.00;98735.34;4516826;31;20433;-72
2023/01/28 02:26:47;;;;;;;37.75;15.93;;;;;;;-0.10;100.00;98741.69;4516343;31;20516;-72
2023/01/28 02:29:22;;;;;;;53.38;18.55;;;;;;;0.00;100.00;98742.09;4516333;31;20159;-72
2023/01/28 02:31:53;;;;;;;41.88;15.93;;;;;;;-0.02;100.00;98731.00;4502284;31;20163;-72
2023/01/28 02:34:29;;;;;;;43.45;15.00;;;;;;;-0.04;100.00;98732.84;4501972;31;20100;-72
2023/01/28 02:37:08;;;;;;;44.42;16.37;;;;;;;0.01;100.00;98733.44;4501997;31;20079;-72
2023/01/28 02:39:43;;;;;;;47.38;17.77;;;;;;;0.05;100.00;98729.00;4502064;31;20163;-72
2023/01/28 02:42:16;;;;;;;44.50;17.25;;;;;;;0.05;100.00;98729.84;4517419;31;20082;-72
2023/01/28 02:44:43;;;;;;;49.65;17.52;;;;;;;0.02;100.00;98729.16;4518337;31;20111;-72
2023/01/28 02:50:03;;;;;;;44.10;17.45;;;;;;;0.01;100.00;98728.28;4517908;31;20567;-72
2023/01/28 02:55:39;;;;;;;46.47;17.40;;;;;;;-0.04;100.00;98728.50;4518396;31;20389;-72
2023/01/28 02:58:16;;;;;;;;;;;;;;;-0.04;100.00;98725.12;4518471;31;20170;-72
2023/01/28 03:00:50;;;;;;;44.58;15.25;;;;;;;-0.08;100.00;98728.72;4503763;31;19994;-71
2023/01/28 03:03:31;;;;;;;43.38;16.62;;;;;;;-0.11;100.00;98723.72;4518016;31;20541;-72
2023/01/28 03:06:07;;;;;;;46.60;17.83;;;;;;;-0.08;100.00;98731.31;4503750;31;20126;-72
2023/01/28 03:36:50;;;;;;;40.90;16.30;;;;;;;-0.49;100.00;98721.16;4505743;31;20110;-72
2023/01/28 03:39:25;;;;;;;42.55;16.17;;;;;;;-0.34;100.00;98728.19;4505504;31;20155;-72
2023/01/28 03:42:02;;;;;;;34.85;13.65;;;;;;;-0.31;100.00;98728.03;4517991;31;20114;-72
2023/01/28 03:47:21;;;;;;;39.00;14.75;;;;;;;-0.37;100.00;98733.47;4517874;31;20168;-72
2023/01/28 03:49:51;;;;;;;42.10;15.48;;;;;;;-0.36;100.00;98735.16;4517625;31;20142;-72
2023/01/28 03:52:24;;;;;;;41.60;15.27;;;;;;;-0.31;100.00;98733.19;4517704;31;20091;-72
2023/01/28 03:54:54;;;;;;;38.00;13.73;;;;;;;-0.38;100.00;98740.38;4517714;31;20118;-71
2023/01/28 03:57:25;;;;;;;37.78;15.77;;;;;;;-0.43;100.00;98744.03;4517823;31;20754;-72
2023/01/28 03:59:53;;;;;;;42.00;16.45;;;;;;;-0.44;100.00;98739.78;4517853;31;20465;-71
2023/01/28 04:02:21;;;;;;;46.13;15.32;;;;;;;-0.45;100.00;98738.13;4517552;31;20175;-72
2023/01/28 04:04:49;;;;;;;38.88;14.15;;;;;;;-0.46;100.00;98737.28;4517825;31;20122;-71
2023/01/28 04:07:17;;;;;;;38.65;14.10;;;;;;;-0.44;100.00;98735.50;4517624;31;20119;-72
2023/01/28 04:10:00;;;;;;;41.60;15.35;;;;;;;-0.43;100.00;98741.47;4523807;31;20162;-71
2023/01/28 04:12:29;;;;;;;41.75;15.55;;;;;;;-0.39;100.00;98733.53;4533447;31;20593;-72
2023/01/28 04:14:56;;;;;;;39.10;16.15;;;;;;;-0.42;100.00;98741.41;4533271;31;20524;-71
2023/01/28 04:17:24;;;;;;;43.13;16.77;;;;;;;-0.46;100.00;98734.72;4533293;31;20118;-72
2023/01/28 04:19:51;;;;;;;50.10;17.25;;;;;;;-0.45;100.00;98738.97;4533497;31;20099;-72
2023/01/28 04:22:19;;;;;;;43.45;16.58;;;;;;;-0.40;100.00;98739.59;4533497;31;20122;-72
2023/01/28 04:24:46;;;;;;;51.45;17.80;;;;;;;-0.42;100.00;98741.41;4533382;31;20083;-71
2023/01/28 04:27:14;;;;;;;49.78;17.48;;;;;;;-0.40;100.00;98747.31;4533520;31;20479;-72
2023/01/28 04:29:41;;;;;;;48.35;17.62;;;;;;;-0.35;100.00;98741.94;4533670;31;20158;-72
2023/01/28 04:32:10;;;;;;;42.75;16.02;;;;;;;-0.36;100.00;98753.16;4533431;31;20114;-72
2023/01/28 04:34:38;;;;;;;49.20;17.15;;;;;;;-0.24;100.00;98755.19;4533635;31;20486;-72
2023/01/28 04:37:05;;;;;;;45.00;16.92;;;;;;;-0.27;100.00;98760.47;4532940;31;20095;-72
2023/01/28 04:39:36;;;;;;;52.60;16.17;;;;;;;-0.28;100.00;98756.22;4533295;31;20095;-71
2023/01/28 04:42:05;;;;;;;43.22;16.58;;;;;;;-0.31;100.00;98752.97;4533098;31;20152;-72
2023/01/28 04:44:35;;;;;;;44.50;16.77;;;;;;;-0.32;100.00;98752.09;4533463;31;20087;-72
2023/01/28 04:47:02;;;;;;;42.97;15.00;;;;;;;-0.28;100.00;98751.06;4533209;31;20167;-71
2023/01/28 04:49:31;;;;;;;42.92;15.30;;;;;;;-0.36;100.00;98755.75;4533519;31;20512;-72
2023/01/28 04:52:02;;;;;;;48.78;17.37;;;;;;;-0.31;100.00;98758.09;4533113;31;20091;-72
2023/01/28 04:54:29;;;;;;;47.42;16.77;;;;;;;-0.32;100.00;98759.00;4533334;31;20096;-72
2023/01/28 04:56:57;;;;;;;45.58;16.23;;;;;;;-0.33;100.00;98765.91;4533407;31;20401;-72
2023/01/28 04:59:25;;;;;;;44.00;16.77;;;;;;;-0.33;100.00;98760.75;4533495;31;20087;-71
2023/01/28 05:01:52;;;;;;;36.50;14.13;;;;;;;-0.39;100.00;98761.84;4531564;31;20087;-71
2023/01/28 05:04:20;;;;;;;42.90;14.48;;;;;;;-0.42;100.00;98761.16;4532541;31;20167;-72
2023/01/28 05:06:47;;;;;;;45.08;15.40;;;;;;;-0.38;100.00;98755.81;4533223;31;20122;-72
2023/01/28 05:09:14;;;;;;;43.17;16.02;;;;;;;-0.44;100.00;98761.22;4533068;31;20114;-71
2023/01/28 05:11:42;;;;;;;40.15;14.87;;;;;;;-0.43;100.00;98773.19;4533339;31;20452;-72
2023/01/28 05:14:09;;;;;;;45.00;16.92;;;;;;;-0.38;100.00;98770.41;4532538;31;20544;-71
2023/01/28 05:16:37;;;;;;;31.52;12.55;;;;;;;-0.43;100.00;98769.78;4533361;31;20124;-71
2023/01/28 05:19:05;;;;;;;38.47;15.00;;;;;;;-0.34;100.00;98776.25;4533058;31;20103;-72
2023/01/28 05:21:32;;;;;;;45.42;16.37;;;;;;;-0.41;100.00;98779.13;4533314;31;20441;-71
2023/01/28 05:24:00;;;;;;;38.10;13.90;;;;;;;-0.39;100.00;98779.03;4533139;31;20146;-71
2023/01/28 05:26:27;;;;;;;40.95;15.57;;;;;;;-0.42;100.00;98777.44;4533237;31;20143;-71
2023/01/28 05:28:54;;;;;;;39.75;14.85;;;;;;;-0.45;100.00;98781.87;4533120;31;20931;-71
2023/01/28 05:31:23;;;;;;;44.97;15.73;;;;;;;-0.41;100.00;98784.25;4533154;31;20091;-71
2023/01/28 05:33:51;;;;;;;44.65;16.40;;;;;;;-0.42;100.00;98781.75;4531448;31;20107;-71
2023/01/28 05:36:19;;;;;;;37.63;15.30;;;;;;;-0.45;100.00;98777.56;4533275;31;20134;-72
2023/01/28 05:38:46;;;;;;;42.78;15.43;;;;;;;-0.48;100.00;98787.16;4533020;31;20152;-72
2023/01/28 05:41:14;;;;;;;40.85;15.65;;;;;;;-0.49;100.00;98785.50;4531521;31;20143;-71
2023/01/28 05:43:42;;;;;;;43.50;14.02;;;;;;;-0.57;100.00;98778.94;4532997;31;20130;-72
2023/01/28 05:46:10;;;;;;;46.58;15.63;;;;;;;-0.55;100.00;98784.00;4533017;31;20099;-72
2023/01/28 05:48:43;;;;;;;45.92;16.17;;;;;;;-0.55;100.00;98790.00;4533244;31;20163;-72
2023/01/28 05:51:10;;;;;;;44.33;15.38;;;;;;;-0.54;100.00;98789.09;4532845;31;20095;-72
2023/01/28 05:53:37;;;;;;;40.95;15.95;;;;;;;-0.54;100.00;98790.84;4533038;31;20174;-72
2023/01/28 05:56:05;;;;;;;44.88;15.63;;;;;;;-0.60;100.00;98793.69;4532986;31;20126;-72
2023/01/28 05:58:32;;;;;;;41.08;14.70;;;;;;;-0.60;100.00;98794.50;4532935;31;20099;-72
2023/01/28 06:01:00;;;;;;;47.13;16.75;;;;;;;-0.55;100.00;98792.56;4532584;31;20221;-71
2023/01/28 06:03:30;;;;;;;40.92;15.00;;;;;;;-0.64;100.00;98799.84;4533050;31;20105;-72
2023/01/28 06:05:57;;;;;;;39.13;16.75;;;;;;;-0.59;100.00;98803.91;4532731;31;20460;-72
2023/01/28 06:08:24;;;;;;;40.35;15.65;;;;;;;-0.63;100.00;98799.78;4532623;31;20419;-71
2023/01/28 06:10:52;;;;;;;36.85;15.55;;;;;;;-0.61;100.00;98802.28;4532344;31;20095;-71
2023/01/28 06:13:20;;;;;;;33.80;13.88;;;;;;;-0.66;100.00;98805.06;4532731;31;20099;-72
2023/01/28 06:15:49;;;;;;;38.13;15.07;;;;;;;-0.57;100.00;98803.84;4532432;31;20100;-71
2023/01/28 06:18:17;;;;;;;39.83;15.18;;;;;;;-0.60;100.00;98804.81;4532859;31;20099;-72
2023/01/28 06:20:44;;;;;;;46.53;17.25;;;;;;;-0.57;100.00;98809.00;4532684;31;20169;-72
2023/01/28 06:23:11;;;;;;;35.58;13.38;;;;;;;-0.56;100.00;98810.63;4532279;31;20155;-72
2023/01/28 06:25:39;;;;;;;46.55;15.93;;;;;;;-0.58;100.00;98813.28;4532595;31;20155;-71
2023/01/28 06:28:08;;;;;;;46.80;19.15;;;;;;;-0.57;100.00;98807.25;4532643;31;20095;-72
2023/01/28 06:30:35;;;;;;;43.03;16.85;;;;;;;-0.52;100.00;98812.19;4532161;31;20432;-72
2023/01/28 06:33:03;;;;;;;46.05;15.68;;;;;;;-0.51;100.00;98818.19;4532423;31;20187;-72
2023/01/28 06:35:29;;;;;;;51.33;16.50;;;;;;;-0.59;100.00;98815.91;4532097;31;20167;-72
2023/01/28 06:37:57;;;;;;;42.83;16.37;;;;;;;-0.62;100.00;98823.78;4532297;31;20135;-72
2023/01/28 06:40:24;;;;;;;48.03;17.87;;;;;;;-0.60;100.00;98825.38;4531978;31;20125;-72
2023/01/28 06:42:51;;;;;;;45.53;16.40;;;;;;;-0.58;100.00;98827.87;4532229;31;20171;-72
2023/01/28 06:45:18;;;;;;;50.40;18.45;;;;;;;-0.60;100.00;98833.09;4531925;31;20122;-72
2023/01/28 06:47:46;;;;;;;43.83;16.08;;;;;;;-0.55;100.00;98831.16;4532207;31;20436;-72
2023/01/28 06:50:13;;;;;;;42.85;15.27;;;;;;;-0.51;100.00;98836.19;4531896;31;20115;-72
2023/01/28 06:52:41;;;;;;;47.00;16.42;;;;;;;-0.50;100.00;98843.84;4532035;31;20083;-72
2023/01/28 06:55:09;;;;;;;48.03;17.30;;;;;;;-0.48;100.00;98854.09;4531909;31;20152;-72
2023/01/28 06:57:39;;;;;;;45.65;17.15;;;;;;;-0.49;100.00;98852.41;4532058;31;20517;-72
2023/01/28 07:00:09;;;;;;;54.03;19.37;;;;;;;-0.51;100.00;98854.22;4531927;31;20091;-72
2023/01/28 07:02:37;;;;;;;53.90;17.95;;;;;;;-0.45;100.00;98859.09;4531847;31;20159;-72
2023/01/28 07:05:05;;;;;;;41.65;17.08;;;;;;;-0.42;100.00;98870.09;4531580;31;20080;-72
2023/01/28 07:07:32;;;;;;;54.15;20.73;;;;;;;-0.50;100.00;98863.59;4531965;31;20095;-72
2023/01/28 07:10:00;;;;;;;41.75;16.12;;;;;;;-0.50;100.00;98861.00;4531507;31;20126;-72
2023/01/28 07:12:27;;;;;;;41.88;16.70;;;;;;;-0.45;100.00;98866.81;4531735;31;20110;-72
2023/01/28 07:14:54;;;;;;;52.13;18.30;;;;;;;-0.50;100.00;98874.72;4517226;31;20147;-72
2023/01/28 07:17:22;;;;;;;49.17;17.52;;;;;;;-0.40;100.00;98875.16;4531816;31;20522;-72
2023/01/28 07:19:49;;;;;;;45.63;15.98;;;;;;;-0.38;100.00;98870.78;4531716;31;20464;-72
2023/01/28 07:22:16;;;;;;;42.45;15.98;;;;;;;-0.40;100.00;98872.59;4531678;31;20099;-72
2023/01/28 07:24:43;;;;;;;42.50;15.43;;;;;;;-0.44;100.00;98871.03;4531729;31;20087;-72
2023/01/28 07:27:11;;;;;;;43.47;15.48;;;;;;;-0.41;100.00;98881.19;4532055;31;20385;-72
2023/01/28 07:29:38;;;;;;;46.92;16.65;;;;;;;-0.43;100.00;98880.44;4533818;31;20407;-72
2023/01/28 07:32:06;;;;;;;47.40;17.02;;;;;;;-0.31;100.00;98886.81;4533507;31;20120;-72
2023/01/28 07:34:33;;;;;;;42.90;16.12;;;;;;;-0.28;100.00;98884.94;4534001;31;20117;-72
2023/01/28 07:37:00;;;;;;;43.90;14.98;;;;;;;-0.34;100.00;98889.53;4532205;31;20186;-72
2023/01/28 07:39:27;;;;;;;45.03;14.35;;;;;;;-0.30;100.00;98881.59;4533723;31;20102;-72
2023/01/28 07:41:54;;;;;;;41.75;15.05;;;;;;;-0.30;100.00;98886.75;4533878;31;20499;-72
2023/01/28 07:44:26;;;;;;;41.58;14.95;;;;;;;-0.44;100.00;98884.75;4533794;31;20420;-72
2023/01/28 07:46:53;;;;;;;43.63;15.35;;;;;;;-0.28;100.00;98896.97;4533741;31;20091;-72
2023/01/28 07:49:20;;;;;;;46.45;16.52;;;;;;;-0.32;100.00;98893.69;4533626;31;20087;-72
2023/01/28 07:51:49;;;;;;;49.40;17.42;;;;;;;-0.25;100.00;98899.41;4533824;31;20133;-72
2023/01/28 07:54:17;;;;;;;48.78;15.98;;;;;;;-0.15;100.00;98886.97;4532640;31;20159;-72
2023/01/28 07:56:44;;;;;;;50.75;17.33;;;;;;;-0.19;100.00;98897.41;4533750;31;20167;-72
2023/01/28 07:59:11;;;;;;;43.47;14.45;;;;;;;-0.04;100.00;98892.50;4533780;31;20158;-72
2023/01/28 08:01:38;;;;;;;39.85;15.85;;;;;;;-0.07;100.00;98901.19;4533227;31;20155;-72
2023/01/28 08:04:06;;;;;;;46.53;16.70;;;;;;;-0.02;100.00;98903.56;4533983;31;20134;-72
2023/01/28 08:06:36;;;;;;;39.25;13.65;;;;;;;0.01;100.00;98903.44;4533507;31;20111;-72
2023/01/28 08:09:05;;;;;;;43.55;14.38;;;;;;;-0.01;100.00;98911.22;4533558;31;20419;-72
2023/01/28 08:11:32;;;;;;;43.95;14.57;;;;;;;-0.01;100.00;98905.25;4517278;31;20126;-72
2023/01/28 08:14:00;;;;;;;44.97;15.77;;;;;;;-0.06;100.00;98913.16;4517281;31;20130;-72
2023/01/28 08:16:28;;;;;;;38.22;15.20;;;;;;;0.13;100.00;98909.78;4517334;31;20104;-72
2023/01/28 08:18:55;;;;;;;35.15;13.77;;;;;;;0.10;100.00;98908.16;4517338;31;20087;-72
2023/01/28 08:21:22;;;;;;;35.63;14.40;;;;;;;-0.07;100.00;98916.63;4518755;31;20084;-72
2023/01/28 08:23:49;;;;;;;37.15;14.90;;;;;;;-0.03;100.00;98904.47;4533603;31;20126;-72
2023/01/28 08:26:17;;;;;;;43.92;13.32;;;;;;;0.06;100.00;98904.06;4533330;31;20171;-72
2023/01/28 08:28:44;;;;;;;41.95;16.00;;;;;;;0.05;100.00;98910.13;4533307;31;20169;-72
2023/01/28 08:31:11;;;;;;;48.00;17.33;;;;;;;0.13;100.00;98909.78;4533202;31;20163;-72
2023/01/28 08:33:38;;;;;;;45.08;15.50;;;;;;;0.06;100.00;98910.94;4533374;31;20213;-72
2023/01/28 08:36:06;;;;;;;47.15;16.60;;;;;;;0.09;100.00;98915.97;4533214;31;20178;-72
2023/01/28 08:38:33;;;;;;;41.65;14.23;;;;;;;0.13;100.00;98915.75;4532791;31;20106;-72
2023/01/28 08:41:00;;;;;;;34.47;13.57;;;;;;;0.06;100.00;98916.97;4531710;31;20099;-71
2023/01/28 08:43:28;;;;;;;39.30;16.48;;;;;;;0.25;100.00;98916.97;4533234;31;20098;-72
2023/01/28 08:45:55;;;;;;;42.45;14.95;;;;;;;0.31;100.00;98921.84;4533072;31;20141;-72
2023/01/28 08:48:23;;;;;;;47.42;15.68;;;;;;;0.31;100.00;98921.00;4533448;31;20091;-72
2023/01/28 08:50:50;;;;;;;43.95;15.32;;;;;;;0.41;100.00;98924.00;4527842;31;171185;-72
2023/01/28 08:53:19;;;;;;;38.35;15.30;;;;;;;0.20;100.00;98920.63;4533303;31;20147;-72
2023/01/28 08:55:46;;;;;;;44.60;16.20;;;;;;;0.26;100.00;98928.94;4533306;31;20125;-72
2023/01/28 08:58:15;;;;;;;42.05;16.05;;;;;;;0.41;100.00;98930.00;4533347;31;20158;-72
2023/01/28 09:00:43;;;;;;;46.35;17.67;;;;;;;0.38;100.00;98927.56;4533370;31;20187;-72
2023/01/28 09:03:10;;;;;;;46.60;15.95;;;;;;;0.45;100.00;98936.66;4533463;31;20095;-72
2023/01/28 09:05:38;;;;;;;33.70;13.80;;;;;;;0.65;100.00;98935.78;4533166;31;20166;-72
2023/01/28 09:08:07;;;;;;;43.33;16.80;;;;;;;0.53;100.00;98941.50;4533084;31;20113;-72
2023/01/28 09:10:36;;;;;;;39.47;15.80;;;;;;;0.59;100.00;98945.53;4533124;31;20136;-72
2023/01/28 09:13:05;;;;;;;39.70;14.95;;;;;;;0.62;100.00;98943.66;4533065;31;20088;-72
2023/01/28 09:15:32;;;;;;;37.00;13.77;;;;;;;0.74;100.00;98949.97;4533033;31;20121;-72
2023/01/28 09:18:00;;;;;;;40.40;17.00;;;;;;;0.67;100.00;98951.19;4532852;31;20109;-72
2023/01/28 09:20:27;;;;;;;47.15;16.00;;;;;;;0.64;100.00;98954.72;4533102;31;20157;-72
2023/01/28 09:22:54;;;;;;;36.25;14.20;;;;;;;0.71;100.00;98950.13;4532878;31;20115;-72
2023/01/28 09:25:22;;;;;;;44.85;14.43;;;;;;;0.58;100.00;98952.44;4533125;31;20103;-72
2023/01/28 09:27:49;;;;;;;33.25;13.75;;;;;;;0.75;100.00;98961.16;4533217;31;20099;-72
2023/01/28 09:30:17;;;;;;;31.20;12.30;;;;;;;0.75;100.00;98961.97;4532927;31;20114;-72
2023/01/28 09:32:49;;;;;;;29.67;13.00;;;;;;;0.72;100.00;98954.38;4532810;31;20096;-72
2023/01/28 09:35:16;;;;;;;38.47;14.82;;;;;;;0.72;100.00;98961.28;4532898;31;20586;-72
2023/01/28 09:37:45;;;;;;;30.33;14.00;;;;;;;0.85;100.00;98963.22;4533110;31;20452;-72
2023/01/28 09:40:26;;;;;;;42.60;13.38;;;;;;;0.91;100.00;98961.25;4532878;31;20092;-72
2023/01/28 09:43:00;;;;;;;39.75;14.65;;;;;;;0.83;100.00;98965.06;4532794;31;20083;-72
2023/01/28 09:45:36;;;;;;;32.67;12.73;;;;;;;0.87;100.00;98963.97;4532951;31;20075;-72
2023/01/28 09:48:05;;;;;;;28.75;12.30;;;;;;;0.78;100.00;98967.00;4531477;31;20611;-72
2023/01/28 09:50:39;;;;;;;31.83;12.63;;;;;;;0.78;100.00;98967.00;4531151;31;20386;-72
2023/01/28 09:53:19;;;;;;;30.23;12.80;;;;;;;0.83;100.00;98964.19;4531308;31;20103;-72
2023/01/28 09:55:49;;;;;;;35.40;14.23;;;;;;;0.83;100.00;98962.47;4532860;31;20631;-72
2023/01/28 09:58:17;;;;;;;33.08;15.25;;;;;;;1.02;100.00;98959.03;4532413;31;20091;-72
2023/01/28 10:01:13;;;;;;;32.97;13.57;;;;;;;1.22;100.00;98961.47;4532883;31;20092;-72
2023/01/28 10:04:00;;;;;;;34.63;14.05;;;;;;;1.14;100.00;98968.75;4531538;31;20115;-72
2023/01/28 10:06:43;;;;;;;35.58;14.02;;;;;;;1.10;100.00;98956.09;4532701;31;20154;-72
2023/01/28 10:09:13;;;;;;;32.83;13.93;;;;;;;1.24;100.00;98949.34;4532354;31;20194;-72
2023/01/28 10:11:49;;;;;;;38.33;13.43;;;;;;;1.10;100.00;98951.75;4532652;31;20113;-72
2023/01/28 10:14:27;;;;;;;41.83;13.75;;;;;;;1.05;100.00;98954.56;4532239;31;20797;-72
2023/01/28 10:17:00;;;;;;;41.13;15.68;;;;;;;1.10;100.00;98946.59;4518330;31;20155;-72
2023/01/28 10:19:31;;;;;;;42.88;15.07;;;;;;;1.24;100.00;98951.94;4532618;31;20083;-72
2023/01/28 10:22:21;;;;;;;34.47;13.07;;;;;;;1.13;100.00;98955.94;4512362;31;20083;-72
2023/01/28 10:24:53;;;;;;;32.55;13.70;;;;;;;1.11;100.00;98955.19;4502009;31;20100;-72
2023/01/28 10:27:22;;;;;;;39.63;15.15;;;;;;;1.17;100.00;98957.47;4516663;31;20564;-72
2023/01/28 10:29:52;;;;;;;48.42;14.95;;;;;;;1.45;100.00;98959.53;4516318;31;20411;-72
2023/01/28 10:32:29;;;;;;;38.60;13.35;;;;;;;1.39;100.00;98952.09;4501871;31;20146;-72
2023/01/28 10:34:58;;;;;;;34.30;15.05;;;;;;;1.47;100.00;98952.56;4516526;31;20138;-72
2023/01/28 10:37:26;;;;;;;39.38;15.23;;;;;;;1.65;100.00;98948.25;4501925;31;20107;-72
2023/01/28 10:39:57;;;;;;;36.80;15.23;;;;;;;1.79;100.00;98957.87;4516143;31;20508;-72
2023/01/28 10:42:35;;;;;;;43.50;16.35;;;;;;;1.77;100.00;98947.63;4502240;31;20101;-72
2023/01/28 10:45:16;;;;;;;42.38;15.85;;;;;;;2.01;100.00;98952.44;4501649;31;20143;-72
2023/01/28 10:47:57;;;;;;;34.38;13.43;;;;;;;2.06;100.00;98953.06;4516204;31;20083;-72
2023/01/28 10:50:30;;;;;;;31.92;13.40;;;;;;;2.10;100.00;98962.31;4515955;31;20080;-72
2023/01/28 10:52:59;;;;;;;34.42;13.75;;;;;;;2.06;100.00;98958.22;4515811;31;20188;-72
2023/01/28 10:55:30;;;;;;;36.25;14.63;;;;;;;2.04;100.00;98956.63;4516054;31;20138;-72
2023/01/28 10:57:58;;;;;;;32.90;11.02;;;;;;;2.20;100.00;98954.94;4502324;31;20686;-72
2023/01/28 11:00:29;;;;;;;31.83;13.45;;;;;;;2.14;100.00;98955.25;4515802;31;20155;-72
2023/01/28 11:02:58;;;;;;;36.05;12.82;;;;;;;1.93;100.00;98957.19;4516779;31;20102;-72
2023/01/28 11:05:29;;;;;;;29.23;13.10;;;;;;;2.09;100.00;98952.03;4503618;31;20103;-72
2023/01/28 11:08:14;;;;;;;37.42;13.73;;;;;;;2.01;100.00;98955.03;4517992;31;20531;-72
2023/01/28 11:10:42;;;;;;;34.13;15.13;;;;;;;1.80;100.00;98954.38;4514098;31;20155;-72
2023/01/28 11:13:21;;;;;;;32.50;13.80;;;;;;;1.69;100.00;98964.41;4533507;31;20565;-72
2023/01/28 11:15:54;;;;;;;35.28;14.00;;;;;;;1.77;100.00;98957.09;4533808;31;20528;-72
2023/01/28 11:18:24;;;;;;;30.83;12.98;;;;;;;1.44;100.00;98960.47;4519662;31;20496;-72
2023/01/28 11:20:57;;;;;;;40.72;14.95;;;;;;;1.63;100.00;98952.62;4533948;31;20092;-72
2023/01/28 11:23:27;;;;;;;32.22;12.37;;;;;;;1.68;100.00;98960.16;4533600;31;20091;-72
2023/01/28 11:26:34;;;;;;;25.55;11.35;;;;;;;1.61;100.00;98951.88;4534174;31;20118;-72
2023/01/28 11:29:02;;;;;;;28.62;12.43;;;;;;;1.55;100.00;98952.19;4455058;32;20589;-72
2023/01/28 11:31:37;;;;;;;30.30;14.10;;;;;;;1.44;100.00;98955.31;4455379;32;20093;-72
2023/01/28 11:34:05;;;;;;;38.58;14.82;;;;;;;1.49;100.00;98950.75;4455074;32;20531;-72
2023/01/28 11:36:34;;;;;;;36.92;14.55;;;;;;;1.56;100.00;98949.53;4468000;32;20101;-72
2023/01/28 11:39:15;;;;;;;36.58;14.27;;;;;;;1.53;100.00;98951.41;4454925;32;20101;-72
2023/01/28 11:41:42;;;;;;;33.33;13.18;;;;;;;1.51;100.00;98950.66;4455067;32;20093;-72
2023/01/28 11:44:13;;;;;;;40.35;14.55;;;;;;;1.59;100.00;98944.22;4467591;32;20093;-72
2023/01/28 11:46:59;;;;;;;36.20;13.27;;;;;;;1.48;100.00;98938.72;4468005;32;20219;-72
2023/01/28 11:49:39;;;;;;;39.10;14.27;;;;;;;1.56;100.00;98944.38;4467952;32;20100;-72
2023/01/28 11:52:43;;;;;;;31.25;13.05;;;;;;;1.61;100.00;98938.16;4454816;32;20185;-72
2023/01/28 11:55:49;;;;;;;35.42;14.93;;;;;;;1.63;100.00;98936.31;4467865;32;20166;-72
2023/01/28 11:58:28;;;;;;;33.45;12.98;;;;;;;1.59;100.00;98938.22;4467951;32;20493;-72
2023/01/28 12:00:56;;;;;;;28.35;12.32;;;;;;;1.74;100.00;98936.59;4530328;31;20096;-72
2023/01/28 12:03:44;;;;;;;48.15;18.20;;;;;;;1.77;100.00;98936.44;4533424;31;20392;-72
2023/01/28 12:06:21;;;;;;;30.52;12.80;;;;;;;1.62;100.00;98937.22;4467554;32;20496;-72